Aviation Digital Data Service (ADDS)

Output produced by METARs form (1410 UTC 19 November 2017)
found at http://aviationweather.gov/adds/metars/
 
KMCB 191140Z 1912/2012 36012KT P6SM SKC 
     FM192200 35007KT P6SM SKC 
     FM200030 35003KT P6SM SKC